Time;durP1;ratioP1;P1;durP2;ratioP2;P2;SDS_P1;SDS_P2;PMS_P1;PMS_P2;Temp;Humidity;BMP_temperature;BMP_pressure;BME280_temperature;BME280_humidity;BME280_pressure;Samples;Min_cycle;Max_cycle;Signal;HPM_P1;HPM_P2
2021/03/06 00:01:21;;;;;;;1.02;0.90;;;6.30;99.90;;;;;;4970196;28;20053;-75
2021/03/06 00:03:47;;;;;;;0.65;0.55;;;6.30;99.90;;;;;;4969309;28;20488;-75
2021/03/06 00:06:13;;;;;;;0.88;0.73;;;6.40;99.90;;;;;;4972935;28;20393;-76
2021/03/06 00:08:42;;;;;;;0.85;0.75;;;6.30;99.90;;;;;;4949860;28;20070;-77
2021/03/06 00:11:08;;;;;;;1.08;0.98;;;6.40;99.90;;;;;;4954441;28;20045;-77
2021/03/06 00:13:36;;;;;;;1.30;0.77;;;6.30;99.90;;;;;;4964814;28;20023;-77
2021/03/06 00:16:03;;;;;;;1.48;0.35;;;6.40;99.90;;;;;;4964282;28;20119;-75
2021/03/06 00:18:29;;;;;;;0.65;0.65;;;6.40;99.90;;;;;;4961884;28;20030;-75
2021/03/06 00:20:55;;;;;;;0.50;0.50;;;6.30;99.90;;;;;;4961064;28;20031;-75
2021/03/06 00:23:21;;;;;;;0.40;0.40;;;6.30;99.90;;;;;;4961687;28;20442;-75
2021/03/06 00:25:47;;;;;;;0.45;0.45;;;6.30;99.90;;;;;;4962348;28;20031;-77
2021/03/06 00:28:13;;;;;;;0.50;0.50;;;6.30;99.90;;;;;;4949885;28;20082;-75
2021/03/06 00:30:39;;;;;;;1.25;0.70;;;6.30;99.90;;;;;;4961687;28;20496;-76
2021/03/06 00:33:05;;;;;;;1.63;0.90;;;6.30;99.90;;;;;;4959165;28;20035;-75
2021/03/06 00:35:32;;;;;;;0.98;0.80;;;6.30;99.90;;;;;;4958564;28;20513;-75
2021/03/06 00:37:58;;;;;;;0.70;0.70;;;6.30;99.90;;;;;;4968752;28;20086;-75
2021/03/06 00:40:24;;;;;;;1.33;0.90;;;6.40;99.90;;;;;;4964675;28;20019;-75
2021/03/06 00:42:50;;;;;;;0.50;0.50;;;6.40;99.90;;;;;;4959072;28;20038;-75
2021/03/06 00:45:17;;;;;;;1.13;1.00;;;6.30;99.90;;;;;;4964850;28;20038;-75
2021/03/06 00:47:43;;;;;;;0.90;0.90;;;6.30;99.90;;;;;;4958593;28;20039;-79
2021/03/06 00:50:15;;;;;;;1.38;0.77;;;6.30;99.90;;;;;;4966946;28;20027;-75
2021/03/06 00:52:41;;;;;;;0.70;0.70;;;6.30;99.90;;;;;;4958888;28;20019;-78
2021/03/06 00:55:07;;;;;;;1.17;1.08;;;6.30;99.90;;;;;;4961864;28;20035;-76
2021/03/06 00:57:33;;;;;;;0.90;0.75;;;6.30;99.90;;;;;;4959599;28;20090;-75
2021/03/06 00:59:59;;;;;;;0.80;0.80;;;6.30;99.90;;;;;;4965707;28;20024;-75
2021/03/06 01:02:25;;;;;;;0.95;0.85;;;6.20;99.90;;;;;;4961209;28;20027;-75
2021/03/06 01:04:51;;;;;;;1.48;1.38;;;6.20;99.90;;;;;;4974496;28;20401;-77
2021/03/06 01:07:26;;;;;;;1.48;1.38;;;6.10;99.90;;;;;;4957013;28;20042;-75
2021/03/06 01:10:10;;;;;;;1.80;1.40;;;6.20;99.90;;;;;;4963325;28;20118;-75
2021/03/06 01:12:39;;;;;;;2.60;1.75;;;6.20;99.90;;;;;;4961335;28;20043;-74
2021/03/06 01:15:06;;;;;;;1.85;1.67;;;6.10;99.90;;;;;;4958252;28;20034;-76
2021/03/06 01:17:38;;;;;;;2.30;1.85;;;6.10;99.90;;;;;;4967361;28;20110;-75
2021/03/06 01:20:05;;;;;;;1.58;1.48;;;6.10;99.90;;;;;;4968370;28;20019;-75
2021/03/06 01:22:32;;;;;;;2.10;1.90;;;6.10;99.90;;;;;;4971052;28;20506;-76
2021/03/06 01:24:58;;;;;;;2.63;2.30;;;6.10;99.90;;;;;;4959813;28;20122;-75
2021/03/06 01:27:24;;;;;;;2.60;2.13;;;6.10;99.90;;;;;;4953194;28;20051;-75
2021/03/06 01:29:50;;;;;;;2.08;1.92;;;6.00;99.90;;;;;;4957264;28;20032;-74
2021/03/06 01:32:16;;;;;;;3.17;2.65;;;6.00;99.90;;;;;;4963520;28;20015;-75
2021/03/06 01:34:42;;;;;;;4.03;3.03;;;6.00;99.90;;;;;;4956282;28;20541;-74
2021/03/06 01:37:08;;;;;;;2.38;2.05;;;6.00;99.90;;;;;;4962697;28;20061;-76
2021/03/06 01:39:37;;;;;;;3.70;3.17;;;6.00;99.90;;;;;;4958992;28;20042;-75
2021/03/06 01:42:04;;;;;;;3.38;2.35;;;6.00;99.90;;;;;;4966493;28;20711;-76
2021/03/06 01:44:30;;;;;;;3.60;3.10;;;6.00;99.90;;;;;;4964450;28;20027;-75
2021/03/06 01:46:57;;;;;;;4.03;3.63;;;6.00;99.90;;;;;;4963834;28;20038;-75
2021/03/06 01:49:23;;;;;;;3.35;3.05;;;5.90;99.90;;;;;;4956102;28;20102;-74
2021/03/06 01:51:49;;;;;;;5.10;3.65;;;5.90;99.90;;;;;;4961707;28;20031;-75
2021/03/06 01:54:18;;;;;;;3.63;3.33;;;5.90;99.90;;;;;;4969410;28;20030;-74
2021/03/06 01:56:44;;;;;;;3.22;3.00;;;5.90;99.90;;;;;;4961579;28;20038;-76
2021/03/06 01:59:10;;;;;;;6.97;2.80;;;5.90;99.90;;;;;;4951305;28;20035;-75
2021/03/06 02:01:35;;;;;;;4.45;3.15;;;5.90;99.90;;;;;;4951668;28;20162;-74
2021/03/06 02:04:01;;;;;;;3.40;3.10;;;5.90;99.90;;;;;;4975414;28;20031;-74
2021/03/06 02:06:29;;;;;;;4.35;3.15;;;6.00;99.90;;;;;;4963771;28;20027;-76
2021/03/06 02:08:55;;;;;;;5.72;3.83;;;6.00;99.90;;;;;;4968412;28;20053;-75
2021/03/06 02:11:48;;;;;;;3.83;3.35;;;5.90;99.90;;;;;;4956701;28;20133;-76
2021/03/06 02:14:49;;;;;;;4.00;3.30;;;5.90;99.90;;;;;;4966098;28;20482;-75
2021/03/06 02:17:41;;;;;;;4.63;2.50;;;5.90;99.90;;;;;;4955515;28;20023;-75
2021/03/06 02:20:38;;;;;;;3.20;2.92;;;5.90;99.90;;;;;;4958102;28;20078;-76
2021/03/06 02:23:41;;;;;;;3.15;2.85;;;5.90;99.90;;;;;;4971067;28;20402;-75
2021/03/06 02:26:50;;;;;;;3.40;3.10;;;5.90;99.90;;;;;;4964893;28;20033;-76
2021/03/06 02:29:38;;;;;;;4.63;2.88;;;5.90;99.90;;;;;;4975424;28;20031;-75
2021/03/06 02:32:11;;;;;;;3.35;3.05;;;5.80;99.90;;;;;;4967008;28;20385;-75
2021/03/06 02:34:41;;;;;;;3.42;2.92;;;5.80;99.90;;;;;;4975208;28;20019;-75
2021/03/06 02:37:10;;;;;;;2.85;2.65;;;5.80;99.90;;;;;;4960934;28;20023;-75
2021/03/06 02:39:41;;;;;;;3.33;3.03;;;5.80;99.90;;;;;;4956452;28;20030;-74
2021/03/06 02:42:08;;;;;;;3.70;3.35;;;5.80;99.90;;;;;;4956804;28;20035;-79
2021/03/06 02:44:36;;;;;;;4.90;4.28;;;5.80;99.90;;;;;;4960299;28;20490;-75
2021/03/06 02:47:05;;;;;;;5.40;4.18;;;5.70;99.90;;;;;;4957921;28;20043;-74
2021/03/06 02:49:34;;;;;;;5.47;4.03;;;5.70;99.90;;;;;;4959344;28;20059;-75
2021/03/06 02:52:05;;;;;;;5.10;3.75;;;5.70;99.90;;;;;;4957631;28;20019;-75
2021/03/06 02:54:50;;;;;;;3.85;3.55;;;5.70;99.90;;;;;;4959144;28;20027;-75
2021/03/06 02:57:52;;;;;;;4.55;4.18;;;5.70;99.90;;;;;;4949767;28;20026;-77
2021/03/06 03:00:45;;;;;;;4.05;3.65;;;5.70;99.90;;;;;;4955210;28;20528;-75
2021/03/06 03:03:18;;;;;;;4.97;4.10;;;5.70;99.90;;;;;;4956559;28;20056;-75
2021/03/06 03:06:13;;;;;;;4.88;4.38;;;5.70;99.90;;;;;;4962881;28;20414;-77
2021/03/06 03:08:53;;;;;;;4.18;3.80;;;5.60;99.90;;;;;;4959220;28;20509;-76
2021/03/06 03:11:31;;;;;;;7.30;4.65;;;5.60;99.90;;;;;;4966006;28;20134;-77
2021/03/06 03:13:59;;;;;;;5.25;4.40;;;5.60;99.90;;;;;;4969503;28;20489;-76
2021/03/06 03:16:38;;;;;;;7.60;4.93;;;5.60;99.90;;;;;;4966086;28;20445;-75
2021/03/06 03:19:19;;;;;;;4.38;4.07;;;5.50;99.90;;;;;;4962099;28;20027;-77
2021/03/06 03:21:49;;;;;;;4.40;3.53;;;5.50;99.90;;;;;;4965137;28;20027;-75
2021/03/06 03:24:20;;;;;;;4.43;4.03;;;5.50;99.90;;;;;;4958212;28;20577;-77
2021/03/06 03:26:47;;;;;;;3.92;3.55;;;5.50;99.90;;;;;;4956774;28;20112;-75
2021/03/06 03:29:16;;;;;;;3.83;3.53;;;5.50;99.90;;;;;;4970830;28;20458;-75
2021/03/06 03:31:47;;;;;;;4.80;4.22;;;5.50;99.90;;;;;;4968484;28;20029;-74
2021/03/06 03:34:14;;;;;;;5.22;4.65;;;5.50;99.90;;;;;;4969507;28;20391;-76
2021/03/06 03:36:41;;;;;;;4.75;4.25;;;5.40;99.90;;;;;;4954182;28;20066;-74
2021/03/06 03:39:08;;;;;;;5.40;4.45;;;5.30;99.90;;;;;;4950702;28;20035;-75
2021/03/06 03:41:35;;;;;;;4.97;4.35;;;5.30;99.90;;;;;;4965225;28;20050;-78
2021/03/06 03:44:03;;;;;;;8.52;4.07;;;5.40;99.90;;;;;;4958454;28;20109;-75
2021/03/06 03:46:31;;;;;;;6.18;4.82;;;5.30;99.90;;;;;;4962637;28;20027;-75
2021/03/06 03:48:58;;;;;;;7.20;4.78;;;5.20;99.90;;;;;;4969847;28;20018;-74
2021/03/06 03:51:24;;;;;;;4.68;3.47;;;5.20;99.90;;;;;;4960506;28;20097;-74
2021/03/06 03:53:51;;;;;;;4.82;4.38;;;5.20;99.90;;;;;;4972717;28;20362;-75
2021/03/06 03:56:17;;;;;;;4.68;4.25;;;5.20;99.90;;;;;;4964865;28;20110;-74
2021/03/06 03:58:47;;;;;;;8.57;4.65;;;5.30;99.90;;;;;;4958892;28;20097;-74
2021/03/06 04:01:13;;;;;;;5.15;4.05;;;5.30;99.90;;;;;;4957269;28;20106;-74
2021/03/06 04:03:39;;;;;;;4.18;3.70;;;5.20;99.90;;;;;;4963682;28;20102;-76
2021/03/06 04:06:06;;;;;;;4.28;3.72;;;5.30;99.90;;;;;;4973397;28;20034;-76
2021/03/06 04:08:32;;;;;;;8.60;4.95;;;5.20;99.90;;;;;;4958797;28;20026;-74
2021/03/06 04:10:58;;;;;;;6.70;4.55;;;5.20;99.90;;;;;;4960126;28;20437;-76
2021/03/06 04:13:24;;;;;;;4.65;4.22;;;5.20;99.90;;;;;;4963042;28;20054;-75
2021/03/06 04:15:50;;;;;;;4.07;3.65;;;5.20;99.90;;;;;;4967318;28;20478;-75
2021/03/06 04:18:16;;;;;;;3.63;3.33;;;5.20;99.90;;;;;;4954051;28;20058;-75
2021/03/06 04:20:42;;;;;;;7.53;4.45;;;5.20;99.90;;;;;;4960856;28;20363;-75
2021/03/06 04:23:08;;;;;;;4.22;3.83;;;5.20;99.90;;;;;;4958967;28;20031;-75
2021/03/06 04:25:34;;;;;;;5.25;4.50;;;5.20;99.90;;;;;;4964515;28;20033;-75
2021/03/06 04:28:00;;;;;;;4.30;3.85;;;5.20;99.90;;;;;;4964022;28;20050;-78
2021/03/06 04:30:26;;;;;;;4.07;3.53;;;5.20;99.90;;;;;;4960716;28;20042;-75
2021/03/06 04:32:52;;;;;;;4.18;3.45;;;5.20;99.90;;;;;;4959118;28;20023;-75
2021/03/06 04:35:19;;;;;;;7.00;4.43;;;5.20;99.90;;;;;;4969952;28;20939;-76
2021/03/06 04:37:45;;;;;;;6.32;4.65;;;5.10;99.90;;;;;;4965576;28;20521;-75
2021/03/06 04:40:13;;;;;;;4.28;3.78;;;5.00;99.90;;;;;;4972585;28;20023;-77
2021/03/06 04:42:40;;;;;;;8.95;4.57;;;5.00;99.90;;;;;;4960130;28;20609;-74
2021/03/06 04:45:09;;;;;;;4.10;3.53;;;5.10;99.90;;;;;;4955273;28;20104;-75
2021/03/06 04:47:39;;;;;;;4.18;3.30;;;5.10;99.90;;;;;;4954779;28;20468;-75
2021/03/06 04:50:05;;;;;;;5.47;3.47;;;5.10;99.90;;;;;;4972943;28;20035;-75
2021/03/06 04:52:33;;;;;;;4.72;2.90;;;5.10;99.90;;;;;;4958848;28;20024;-75
2021/03/06 04:54:59;;;;;;;3.65;2.67;;;5.10;99.90;;;;;;4964172;28;20031;-74
2021/03/06 04:57:26;;;;;;;3.65;2.95;;;5.10;99.90;;;;;;4955468;28;20459;-75
2021/03/06 04:59:53;;;;;;;4.40;2.85;;;5.00;99.90;;;;;;4962542;28;20035;-78
2021/03/06 05:02:18;;;;;;;3.90;3.42;;;5.10;99.90;;;;;;4987278;28;20031;-76
2021/03/06 05:04:44;;;;;;;3.35;3.05;;;5.00;99.90;;;;;;4947860;28;20047;-78
2021/03/06 05:07:10;;;;;;;5.28;3.58;;;5.00;99.90;;;;;;4964935;28;20265;-76
2021/03/06 05:09:37;;;;;;;3.78;2.95;;;5.00;99.90;;;;;;4964137;28;20074;-74
2021/03/06 05:12:03;;;;;;;5.00;3.85;;;4.90;99.90;;;;;;4964328;28;20026;-74
2021/03/06 05:14:29;;;;;;;3.85;2.50;;;5.00;99.90;;;;;;4959043;28;20026;-76
2021/03/06 05:17:03;;;;;;;3.70;3.22;;;5.00;99.90;;;;;;4969505;28;20034;-76
2021/03/06 05:19:30;;;;;;;3.20;2.78;;;4.90;99.90;;;;;;4967509;28;20027;-75
2021/03/06 05:21:59;;;;;;;3.55;2.85;;;4.90;99.90;;;;;;4974725;28;20059;-74
2021/03/06 05:24:37;;;;;;;3.20;2.65;;;4.90;99.90;;;;;;4967317;28;20027;-75
2021/03/06 05:27:03;;;;;;;3.63;2.97;;;4.90;99.90;;;;;;4963635;28;20086;-74
2021/03/06 05:29:34;;;;;;;4.15;2.88;;;4.90;99.90;;;;;;4960359;28;20031;-74
2021/03/06 05:32:05;;;;;;;4.50;3.00;;;4.90;99.90;;;;;;4958904;28;20026;-75
2021/03/06 05:34:32;;;;;;;3.38;2.65;;;4.90;99.90;;;;;;4966891;28;20552;-76
2021/03/06 05:36:58;;;;;;;3.65;2.40;;;4.90;99.90;;;;;;4967687;28;20031;-75
2021/03/06 05:39:26;;;;;;;4.95;2.67;;;4.80;99.90;;;;;;4964449;28;20477;-76
2021/03/06 05:41:53;;;;;;;4.00;2.50;;;4.80;99.90;;;;;;4969284;28;20041;-76
2021/03/06 05:44:20;;;;;;;3.28;2.33;;;4.90;99.90;;;;;;4964751;28;20154;-76
2021/03/06 05:46:57;;;;;;;36.55;6.13;;;4.80;99.90;;;;;;4971335;28;20103;-74
2021/03/06 05:49:23;;;;;;;4.07;3.60;;;4.80;99.90;;;;;;4966105;28;20023;-75
2021/03/06 05:51:50;;;;;;;5.15;2.67;;;4.80;99.90;;;;;;4973493;28;20150;-75
2021/03/06 05:54:16;;;;;;;4.80;2.63;;;4.70;99.90;;;;;;4964413;28;20023;-75
2021/03/06 05:56:43;;;;;;;3.05;2.47;;;4.70;99.90;;;;;;4971495;28;20027;-76
2021/03/06 05:59:13;;;;;;;2.72;2.17;;;4.70;99.90;;;;;;4965319;28;20086;-76
2021/03/06 06:01:42;;;;;;;5.03;2.28;;;4.70;99.90;;;;;;4964196;28;20019;-75
2021/03/06 06:04:09;;;;;;;4.43;2.55;;;4.70;99.90;;;;;;4952374;28;20520;-76
2021/03/06 06:06:37;;;;;;;4.07;2.45;;;4.70;99.90;;;;;;4957854;28;20426;-75
2021/03/06 06:09:06;;;;;;;5.13;2.72;;;4.60;99.90;;;;;;4962914;28;20034;-74
2021/03/06 06:11:35;;;;;;;3.38;2.75;;;4.60;99.90;;;;;;4969637;28;20027;-75
2021/03/06 06:14:03;;;;;;;4.80;3.33;;;4.50;99.90;;;;;;4961662;28;20023;-75
2021/03/06 06:16:31;;;;;;;3.60;3.20;;;4.50;99.90;;;;;;4970064;28;20377;-75
2021/03/06 06:18:57;;;;;;;2.22;1.88;;;4.60;99.90;;;;;;4961841;28;20028;-75
2021/03/06 06:21:42;;;;;;;3.30;2.72;;;4.60;99.90;;;;;;4968849;28;20437;-75
2021/03/06 06:24:10;;;;;;;3.80;2.38;;;4.60;99.90;;;;;;4941800;28;20434;-74
2021/03/06 06:26:38;;;;;;;3.90;2.95;;;4.60;99.90;;;;;;4960156;28;20034;-75
2021/03/06 06:29:05;;;;;;;4.22;3.50;;;4.60;99.90;;;;;;4974755;28;20401;-75
2021/03/06 06:31:32;;;;;;;5.40;3.03;;;4.60;99.90;;;;;;4961900;28;20410;-76
2021/03/06 06:34:00;;;;;;;3.22;2.63;;;4.60;99.90;;;;;;4957597;28;20103;-75
2021/03/06 06:36:34;;;;;;;2.45;2.13;;;4.70;99.90;;;;;;4967519;28;20027;-75
2021/03/06 06:39:02;;;;;;;4.85;2.65;;;4.70;99.90;;;;;;4959128;28;20302;-74
2021/03/06 06:41:48;;;;;;;3.05;2.42;;;4.70;99.90;;;;;;4956761;28;20031;-77
2021/03/06 06:44:14;;;;;;;6.85;3.05;;;4.80;99.90;;;;;;4966336;28;20027;-74
2021/03/06 06:46:44;;;;;;;7.75;2.90;;;4.80;99.90;;;;;;4962757;28;20039;-76
2021/03/06 06:49:13;;;;;;;3.10;2.33;;;4.80;99.90;;;;;;4956121;28;20047;-76
2021/03/06 06:52:04;;;;;;;5.53;2.78;;;4.80;99.90;;;;;;4957352;28;20493;-74
2021/03/06 06:54:35;;;;;;;7.00;2.38;;;4.90;99.90;;;;;;4953886;28;20057;-76
2021/03/06 06:57:07;;;;;;;3.08;2.42;;;4.90;99.90;;;;;;4961264;28;20046;-76
2021/03/06 06:59:34;;;;;;;5.93;3.30;;;4.90;99.90;;;;;;4967452;28;20039;-75
2021/03/06 07:02:34;;;;;;;5.43;1.60;;;4.90;99.90;;;;;;4965110;28;20058;-75
2021/03/06 07:05:26;;;;;;;;;;;;;;;;;;;;;
2021/03/06 07:07:52;;;;;;;;;;;4.90;99.10;;;;;;4961134;28;20022;-74
2021/03/06 07:10:51;;;;;;;4.10;2.47;;;5.00;99.40;;;;;;4957295;28;19914;-75
2021/03/06 07:13:19;;;;;;;4.05;3.65;;;5.00;99.30;;;;;;4955564;28;20032;-74
2021/03/06 07:15:57;;;;;;;5.20;3.08;;;5.00;98.30;;;;;;4960259;28;20359;-75
2021/03/06 07:18:32;;;;;;;1.92;1.73;;;5.00;98.30;;;;;;4956715;28;20031;-76
2021/03/06 07:20:58;;;;;;;2.30;1.40;;;5.10;97.80;;;;;;4969137;28;20062;-77
2021/03/06 07:23:26;;;;;;;3.55;1.67;;;5.10;97.70;;;;;;4965752;28;20027;-76
2021/03/06 07:25:53;;;;;;;2.03;1.83;;;5.20;97.50;;;;;;4958038;28;20078;-76
2021/03/06 07:28:21;;;;;;;1.95;1.08;;;5.30;96.40;;;;;;4958258;28;20073;-75
2021/03/06 07:30:48;;;;;;;2.63;2.42;;;5.20;96.60;;;;;;4956010;28;20055;-75
2021/03/06 07:33:16;;;;;;;2.20;1.70;;;5.20;96.30;;;;;;4957303;28;20020;-77
2021/03/06 07:35:54;;;;;;;2.17;1.17;;;5.30;96.50;;;;;;4957759;28;20030;-77
2021/03/06 07:38:22;;;;;;;1.70;1.60;;;5.40;96.10;;;;;;4963949;28;20830;-75
2021/03/06 07:41:02;;;;;;;2.00;1.75;;;5.50;96.10;;;;;;4959331;28;20046;-75
2021/03/06 07:43:35;;;;;;;2.08;1.90;;;5.50;95.70;;;;;;4957232;28;20038;-75
2021/03/06 07:46:04;;;;;;;3.70;2.10;;;5.40;96.00;;;;;;4951256;28;20127;-76
2021/03/06 07:48:36;;;;;;;3.65;1.38;;;5.50;95.90;;;;;;4963420;28;20429;-76
2021/03/06 07:51:05;;;;;;;2.63;2.08;;;5.60;96.20;;;;;;4957791;28;20031;-75
2021/03/06 07:53:31;;;;;;;2.25;1.55;;;5.60;95.70;;;;;;4962973;28;20075;-75
2021/03/06 07:55:57;;;;;;;3.13;2.05;;;5.70;95.90;;;;;;4953222;28;20099;-75
2021/03/06 07:58:24;;;;;;;2.65;2.05;;;5.70;95.80;;;;;;4961305;28;20074;-78
2021/03/06 08:00:58;;;;;;;2.17;1.67;;;5.80;95.70;;;;;;4954321;28;20055;-76
2021/03/06 08:03:39;;;;;;;2.63;2.22;;;6.00;96.70;;;;;;4955244;28;20418;-76
2021/03/06 08:06:32;;;;;;;5.43;2.67;;;6.00;95.30;;;;;;4954305;28;20489;-76
2021/03/06 08:09:03;;;;;;;3.63;2.65;;;5.90;95.50;;;;;;4950756;28;20283;-75
2021/03/06 08:11:58;;;;;;;4.60;3.15;;;6.10;96.30;;;;;;4962918;28;20035;-74
2021/03/06 08:14:35;;;;;;;3.28;2.83;;;6.00;95.30;;;;;;4954247;28;20402;-75
2021/03/06 08:17:01;;;;;;;1.42;1.30;;;6.10;95.70;;;;;;4960904;28;20031;-75
2021/03/06 08:19:28;;;;;;;4.03;2.17;;;6.00;95.00;;;;;;4966921;28;20112;-74
2021/03/06 08:22:14;;;;;;;3.53;3.13;;;6.00;94.80;;;;;;4952676;28;20035;-76
2021/03/06 08:24:40;;;;;;;4.35;2.20;;;6.00;95.00;;;;;;4964399;28;20027;-75
2021/03/06 08:27:06;;;;;;;2.58;1.88;;;6.10;94.80;;;;;;4961514;28;20027;-75
2021/03/06 08:29:32;;;;;;;4.15;2.85;;;6.00;94.50;;;;;;4958517;28;20098;-75
2021/03/06 08:32:01;;;;;;;2.17;1.95;;;6.10;94.10;;;;;;4956926;28;20070;-75
2021/03/06 08:34:36;;;;;;;4.93;2.05;;;6.10;93.70;;;;;;4951794;28;20486;-75
2021/03/06 08:37:19;;;;;;;3.53;2.35;;;6.10;94.00;;;;;;4977940;28;20035;-75
2021/03/06 08:39:49;;;;;;;3.25;1.88;;;6.10;94.00;;;;;;4970400;28;20023;-75
2021/03/06 08:42:18;;;;;;;4.47;1.50;;;6.10;93.90;;;;;;4953448;28;20604;-75
2021/03/06 08:44:44;;;;;;;3.65;2.58;;;6.30;94.60;;;;;;4972359;28;20042;-76
2021/03/06 08:47:10;;;;;;;2.40;1.80;;;6.50;93.60;;;;;;4960942;28;20025;-74
2021/03/06 08:49:37;;;;;;;3.13;2.60;;;6.40;93.60;;;;;;4959441;28;20024;-75
2021/03/06 08:52:04;;;;;;;3.47;2.50;;;6.60;93.50;;;;;;4967976;28;20034;-76
2021/03/06 08:54:38;;;;;;;2.78;2.33;;;6.80;93.90;;;;;;4964034;28;20025;-75
2021/03/06 08:57:04;;;;;;;2.83;2.45;;;6.70;93.20;;;;;;4962542;28;20077;-76
2021/03/06 08:59:39;;;;;;;4.28;1.70;;;6.70;93.70;;;;;;4962642;28;20070;-76
2021/03/06 09:02:44;;;;;;;2.90;2.70;;;6.80;93.30;;;;;;4964121;28;20108;-78
2021/03/06 09:05:16;;;;;;;2.15;1.92;;;6.70;92.50;;;;;;4948029;28;20054;-76
2021/03/06 09:07:47;;;;;;;4.63;2.90;;;6.90;93.20;;;;;;4963461;28;20615;-77
2021/03/06 09:10:15;;;;;;;4.20;2.00;;;6.90;93.30;;;;;;4957090;28;20435;-77
2021/03/06 09:12:43;;;;;;;9.75;2.38;;;6.80;92.80;;;;;;4964987;28;20282;-78
2021/03/06 09:15:47;;;;;;;2.47;2.28;;;6.90;93.40;;;;;;4964695;28;20023;-78
2021/03/06 09:18:20;;;;;;;2.47;2.28;;;6.90;92.90;;;;;;4971029;28;20027;-78
2021/03/06 09:20:45;;;;;;;;;;;7.10;93.20;;;;;;4974215;28;20042;-77
2021/03/06 09:23:29;;;;;;;3.58;1.92;;;7.20;93.00;;;;;;4970789;28;19996;-79
2021/03/06 09:25:55;;;;;;;8.75;2.90;;;7.20;92.60;;;;;;4977192;28;20031;-78
2021/03/06 09:28:26;;;;;;;2.78;1.92;;;7.10;92.50;;;;;;4975900;28;20035;-79
2021/03/06 09:30:53;;;;;;;2.78;2.08;;;7.10;91.70;;;;;;4963324;28;20102;-76
2021/03/06 09:33:34;;;;;;;5.00;2.30;;;7.20;90.80;;;;;;4966398;28;20022;-77
2021/03/06 09:36:15;;;;;;;3.90;2.22;;;7.10;91.20;;;;;;4965275;28;20050;-77
2021/03/06 09:38:52;;;;;;;2.58;1.60;;;7.30;90.60;;;;;;4973234;28;20030;-76
2021/03/06 09:41:21;;;;;;;2.13;1.58;;;7.30;90.50;;;;;;4961029;28;20386;-76
2021/03/06 09:43:58;;;;;;;3.35;1.55;;;7.20;88.80;;;;;;4962720;28;20050;-76
2021/03/06 09:46:29;;;;;;;2.88;2.03;;;7.20;89.20;;;;;;4966979;28;20027;-76
2021/03/06 09:48:58;;;;;;;4.43;2.55;;;7.40;89.50;;;;;;4970745;28;20028;-76
2021/03/06 09:51:37;;;;;;;3.17;1.75;;;7.20;88.20;;;;;;4967603;28;20066;-76
2021/03/06 09:54:04;;;;;;;4.70;1.55;;;7.10;87.80;;;;;;4965201;28;20076;-76
2021/03/06 09:56:30;;;;;;;3.35;1.80;;;7.20;87.50;;;;;;4967205;28;20030;-76
2021/03/06 09:59:04;;;;;;;3.85;2.03;;;7.20;86.80;;;;;;4965422;28;20026;-76
2021/03/06 10:01:34;;;;;;;2.85;2.00;;;7.20;87.80;;;;;;4964280;28;20089;-76
2021/03/06 10:04:17;;;;;;;1.60;1.50;;;7.30;88.80;;;;;;4964712;28;20065;-76
2021/03/06 10:06:46;;;;;;;2.53;1.70;;;7.30;87.90;;;;;;4971967;28;20421;-76
2021/03/06 10:09:14;;;;;;;4.72;1.73;;;7.50;87.70;;;;;;4957166;28;20031;-76
2021/03/06 10:11:42;;;;;;;3.58;1.83;;;7.50;87.00;;;;;;4963493;28;20027;-76
2021/03/06 10:14:10;;;;;;;3.55;2.08;;;7.40;85.80;;;;;;4955666;28;20031;-76
2021/03/06 10:16:52;;;;;;;2.38;2.17;;;7.40;87.60;;;;;;4964711;28;20047;-76
2021/03/06 10:19:23;;;;;;;3.63;2.15;;;7.50;88.00;;;;;;4960912;28;20062;-76
2021/03/06 10:22:04;;;;;;;1.65;1.50;;;7.40;87.70;;;;;;4966368;28;20038;-76
2021/03/06 10:24:51;;;;;;;2.50;2.03;;;7.50;87.40;;;;;;4958593;28;20023;-76
2021/03/06 10:27:30;;;;;;;1.45;1.35;;;7.70;88.20;;;;;;4962403;28;20545;-77
2021/03/06 10:30:20;;;;;;;3.83;2.60;;;7.70;88.70;;;;;;4963955;28;20397;-76
2021/03/06 10:32:56;;;;;;;2.50;2.00;;;7.50;88.30;;;;;;4955832;28;20038;-76
2021/03/06 10:35:49;;;;;;;2.55;1.40;;;7.50;88.60;;;;;;4966974;28;20026;-77
2021/03/06 10:38:31;;;;;;;2.85;2.30;;;7.50;87.20;;;;;;4959215;28;20023;-76
2021/03/06 10:40:59;;;;;;;2.40;2.20;;;7.50;86.50;;;;;;4965215;28;20439;-76
2021/03/06 10:43:43;;;;;;;1.98;1.45;;;7.40;86.50;;;;;;4962779;28;20070;-76
2021/03/06 10:46:15;;;;;;;1.63;1.40;;;7.60;88.10;;;;;;4938490;28;20114;-76
2021/03/06 10:48:44;;;;;;;3.22;1.90;;;7.80;87.10;;;;;;4970272;28;20034;-76
2021/03/06 10:51:10;;;;;;;1.75;1.33;;;7.70;86.50;;;;;;4956193;28;20039;-76
2021/03/06 10:53:36;;;;;;;1.73;1.45;;;7.70;85.80;;;;;;4961696;28;20026;-76
2021/03/06 10:56:07;;;;;;;2.47;1.73;;;7.80;84.50;;;;;;4967365;28;20073;-76
2021/03/06 10:58:45;;;;;;;1.65;1.50;;;7.70;82.40;;;;;;4960286;28;20027;-76
2021/03/06 11:01:12;;;;;;;2.55;1.60;;;7.50;82.00;;;;;;4956780;28;20019;-77
2021/03/06 11:03:46;;;;;;;2.75;1.92;;;7.70;83.00;;;;;;4964679;28;20081;-78
2021/03/06 11:06:13;;;;;;;2.40;1.60;;;7.70;80.00;;;;;;4957913;28;20034;-77
2021/03/06 11:08:40;;;;;;;1.25;1.23;;;7.70;79.40;;;;;;4957306;28;20039;-76
2021/03/06 11:11:10;;;;;;;2.55;1.70;;;7.60;76.30;;;;;;4962762;28;20673;-76
2021/03/06 11:13:42;;;;;;;2.17;1.45;;;7.80;76.80;;;;;;4970154;28;20018;-76
2021/03/06 11:16:08;;;;;;;5.80;2.25;;;7.80;77.00;;;;;;4968459;28;20463;-76
2021/03/06 11:18:37;;;;;;;2.92;1.60;;;7.90;79.80;;;;;;4960277;28;20038;-76
2021/03/06 11:21:03;;;;;;;2.85;1.77;;;7.70;79.80;;;;;;4964436;28;20034;-76
2021/03/06 11:23:29;;;;;;;2.67;2.28;;;7.80;81.00;;;;;;4961835;28;20055;-76
2021/03/06 11:25:54;;;;;;;2.05;1.83;;;8.00;82.60;;;;;;4961638;28;20058;-76
2021/03/06 11:28:20;;;;;;;2.28;1.70;;;8.20;82.50;;;;;;4962851;28;20031;-76
2021/03/06 11:30:47;;;;;;;2.78;2.25;;;8.10;81.40;;;;;;4969277;28;20393;-76
2021/03/06 11:33:16;;;;;;;3.00;1.90;;;8.00;83.20;;;;;;4962061;28;20110;-76
2021/03/06 11:35:43;;;;;;;5.15;2.22;;;8.20;83.00;;;;;;4968392;28;20069;-76
2021/03/06 11:38:12;;;;;;;1.75;1.55;;;8.10;82.70;;;;;;4961778;28;20033;-76
2021/03/06 11:40:40;;;;;;;2.13;1.92;;;8.20;83.70;;;;;;4968614;28;20057;-76
2021/03/06 11:43:06;;;;;;;6.15;2.15;;;8.10;83.30;;;;;;4941681;28;20030;-76
2021/03/06 11:45:32;;;;;;;2.30;2.15;;;8.30;83.80;;;;;;4961375;28;20023;-76
2021/03/06 11:47:59;;;;;;;3.95;2.28;;;8.10;84.10;;;;;;4957290;28;20035;-77
2021/03/06 11:50:27;;;;;;;5.80;2.33;;;8.40;83.90;;;;;;4958262;28;20078;-77
2021/03/06 11:52:54;;;;;;;4.03;2.28;;;8.60;84.00;;;;;;4972733;28;20444;-78
2021/03/06 11:55:20;;;;;;;3.55;1.92;;;8.50;82.00;;;;;;4959826;28;20029;-77
2021/03/06 11:57:48;;;;;;;1.67;1.58;;;8.30;79.40;;;;;;4954786;28;20015;-77
2021/03/06 12:00:21;;;;;;;1.95;1.33;;;8.10;80.90;;;;;;4962946;28;20105;-79
2021/03/06 12:02:47;;;;;;;3.17;2.38;;;8.20;82.50;;;;;;4954653;28;20051;-78
2021/03/06 12:05:13;;;;;;;3.95;2.03;;;8.40;84.10;;;;;;4955737;28;20386;-78
2021/03/06 12:07:41;;;;;;;2.63;2.28;;;8.30;82.90;;;;;;4965652;28;20078;-79
2021/03/06 12:10:09;;;;;;;3.80;2.88;;;8.40;84.50;;;;;;4947588;28;20027;-79
2021/03/06 12:12:35;;;;;;;4.32;2.72;;;8.60;84.90;;;;;;4954675;28;20020;-78
2021/03/06 12:15:01;;;;;;;3.25;2.42;;;8.80;85.00;;;;;;4967048;28;20034;-81
2021/03/06 12:17:26;;;;;;;2.50;1.95;;;8.60;82.60;;;;;;4960235;28;20027;-79
2021/03/06 12:19:52;;;;;;;4.25;2.58;;;8.70;84.50;;;;;;4972781;28;20022;-78
2021/03/06 12:22:18;;;;;;;3.63;2.65;;;8.70;82.40;;;;;;4977096;28;20058;-78
2021/03/06 12:24:46;;;;;;;4.30;2.03;;;8.70;81.70;;;;;;4957252;28;20486;-77
2021/03/06 12:27:12;;;;;;;3.20;2.30;;;8.60;83.10;;;;;;4973606;28;20022;-77
2021/03/06 12:29:38;;;;;;;3.70;2.83;;;8.60;84.80;;;;;;4967549;28;20561;-77
2021/03/06 12:32:05;;;;;;;2.53;1.80;;;8.60;83.00;;;;;;4963803;28;20019;-77
2021/03/06 12:34:31;;;;;;;3.47;2.38;;;8.70;82.50;;;;;;4966231;28;20046;-77
2021/03/06 12:36:57;;;;;;;3.10;2.58;;;8.90;82.50;;;;;;4956335;28;20478;-77
2021/03/06 12:39:23;;;;;;;2.70;2.45;;;8.80;83.40;;;;;;4958335;28;20042;-77
2021/03/06 12:41:50;;;;;;;4.22;2.80;;;8.20;82.90;;;;;;4962573;28;20031;-77
2021/03/06 12:44:16;;;;;;;3.88;2.80;;;8.00;85.60;;;;;;4961600;28;20170;-77
2021/03/06 12:46:42;;;;;;;4.65;3.35;;;8.20;87.30;;;;;;4958119;28;20043;-77
2021/03/06 12:49:08;;;;;;;4.00;2.38;;;8.40;86.00;;;;;;4967143;28;20042;-77
2021/03/06 12:51:34;;;;;;;3.40;2.20;;;8.40;86.40;;;;;;4958235;28;20122;-77
2021/03/06 12:53:59;;;;;;;5.80;2.25;;;8.50;85.70;;;;;;4962544;28;20046;-77
2021/03/06 12:56:25;;;;;;;6.20;2.03;;;8.50;87.20;;;;;;4960415;28;20030;-77
2021/03/06 12:58:51;;;;;;;2.90;2.58;;;8.50;86.00;;;;;;4966721;28;20089;-76
2021/03/06 13:01:17;;;;;;;5.82;2.30;;;8.60;88.00;;;;;;4956234;28;20050;-77
2021/03/06 13:03:43;;;;;;;4.05;2.47;;;8.80;87.50;;;;;;4956762;28;20385;-77
2021/03/06 13:06:09;;;;;;;4.07;2.28;;;8.50;86.40;;;;;;4955094;28;20070;-77
2021/03/06 13:08:34;;;;;;;5.57;2.95;;;8.60;87.10;;;;;;4962521;28;20677;-77
2021/03/06 13:11:01;;;;;;;3.53;3.10;;;8.50;85.30;;;;;;4955311;28;20037;-77
2021/03/06 13:13:26;;;;;;;3.30;2.38;;;8.60;86.50;;;;;;4953649;28;20018;-76
2021/03/06 13:15:52;;;;;;;4.80;2.97;;;8.60;84.80;;;;;;4966441;28;20378;-76